Time;durP1;ratioP1;P1;durP2;ratioP2;P2;SDS_P1;SDS_P2;PMS_P1;PMS_P2;Temp;Humidity;BMP_temperature;BMP_pressure;BME280_temperature;BME280_humidity;BME280_pressure;Samples;Min_cycle;Max_cycle;Signal;HPM_P1;HPM_P2
2021/11/15 00:01:20;;;;;;;30.50;15.40;;;;;;;4.70;92.27;96171.56;5049647;28;20049;-47
2021/11/15 00:03:48;;;;;;;35.22;18.05;;;;;;;4.66;92.74;96159.81;5030177;28;20045;-48
2021/11/15 00:06:15;;;;;;;33.50;18.70;;;;;;;4.75;92.74;96158.09;5030902;28;20057;-48
2021/11/15 00:08:42;;;;;;;34.00;19.02;;;;;;;4.86;92.56;96148.81;5031149;28;20589;-48
2021/11/15 00:11:09;;;;;;;33.03;18.50;;;;;;;5.10;91.21;96155.97;5031006;28;20049;-47
2021/11/15 00:13:38;;;;;;;33.10;17.35;;;;;;;5.02;91.50;96165.47;5030198;28;20047;-49
2021/11/15 00:16:05;;;;;;;33.47;17.42;;;;;;;4.84;91.39;96164.41;5030847;28;20128;-48
2021/11/15 00:18:32;;;;;;;36.63;18.58;;;;;;;4.82;92.75;96155.06;5030427;28;20399;-50
2021/11/15 00:20:59;;;;;;;36.58;18.75;;;;;;;4.73;92.67;96162.13;5030788;28;20055;-48
2021/11/15 00:23:26;;;;;;;38.05;20.27;;;;;;;4.74;92.53;96156.47;5029883;28;20029;-48
2021/11/15 00:25:53;;;;;;;38.38;20.70;;;;;;;4.74;92.60;96156.47;5029423;28;20460;-50
2021/11/15 00:28:20;;;;;;;36.58;18.50;;;;;;;4.60;92.62;96155.59;5030637;28;20061;-47
2021/11/15 00:30:46;;;;;;;35.45;18.75;;;;;;;4.62;92.47;96161.50;5030913;28;20602;-48
2021/11/15 00:33:13;;;;;;;35.58;19.10;;;;;;;4.71;92.24;96156.25;5029881;28;20039;-47
2021/11/15 00:35:40;;;;;;;37.22;19.80;;;;;;;4.64;92.45;96161.97;5030880;28;20558;-51
2021/11/15 00:38:07;;;;;;;32.03;17.77;;;;;;;4.73;92.02;96170.97;5030589;28;20459;-48
2021/11/15 00:40:34;;;;;;;36.03;18.63;;;;;;;4.69;92.22;96169.97;5029424;28;20083;-47
2021/11/15 00:43:01;;;;;;;34.15;19.42;;;;;;;4.73;91.67;96165.63;5029441;28;20042;-47
2021/11/15 00:45:28;;;;;;;38.38;19.42;;;;;;;4.56;92.57;96163.44;5029455;28;20045;-47
2021/11/15 00:47:55;;;;;;;34.80;18.80;;;;;;;4.64;92.40;96172.69;5030545;28;20051;-46
2021/11/15 00:50:23;;;;;;;36.88;19.33;;;;;;;4.49;92.20;96171.03;5029747;28;20037;-47
2021/11/15 00:52:50;;;;;;;34.42;18.85;;;;;;;4.53;92.78;96169.34;5033292;28;20364;-51
2021/11/15 00:55:19;;;;;;;33.45;18.85;;;;;;;4.53;92.93;96165.88;5034002;28;20092;-48
2021/11/15 00:57:47;;;;;;;35.45;18.38;;;;;;;4.45;92.51;96167.31;5033959;28;20049;-46
2021/11/15 01:00:21;;;;;;;36.88;19.48;;;;;;;4.33;92.96;96169.63;5034013;28;20426;-50
2021/11/15 01:02:49;;;;;;;39.33;18.35;;;;;;;4.31;94.11;96167.22;5049573;28;20437;-48
2021/11/15 01:05:17;;;;;;;33.00;18.08;;;;;;;4.34;93.58;96180.03;5053868;28;20041;-47
2021/11/15 01:07:45;;;;;;;31.23;17.13;;;;;;;4.53;93.25;96171.25;5053964;28;20502;-48
2021/11/15 01:10:15;;;;;;;33.58;18.83;;;;;;;4.67;91.86;96166.75;5041791;28;20069;-50
2021/11/15 01:12:43;;;;;;;30.70;17.23;;;;;;;4.73;92.34;96176.34;5032975;28;20049;-48
2021/11/15 01:15:14;;;;;;;32.10;17.35;;;;;;;4.79;91.82;96172.50;5033673;28;20045;-47
2021/11/15 01:17:41;;;;;;;33.60;18.73;;;;;;;4.77;92.36;96177.34;5016174;28;20128;-47
2021/11/15 01:20:11;;;;;;;33.53;16.83;;;;;;;4.54;92.74;96165.59;5033728;28;20133;-47
2021/11/15 01:22:38;;;;;;;33.17;18.77;;;;;;;4.61;93.29;96174.06;5031675;28;20144;-47
2021/11/15 01:25:07;;;;;;;35.47;18.33;;;;;;;4.64;92.90;96173.50;5049817;28;20033;-52
2021/11/15 01:27:35;;;;;;;35.55;19.13;;;;;;;4.45;93.46;96164.63;5053274;28;20057;-47
2021/11/15 01:30:04;;;;;;;33.38;17.52;;;;;;;4.44;94.50;96165.72;5052429;28;20399;-48
2021/11/15 01:32:32;;;;;;;36.60;18.85;;;;;;;4.53;94.31;96160.53;5040779;28;20187;-48
2021/11/15 01:34:59;;;;;;;32.45;17.48;;;;;;;4.67;93.70;96161.41;5033605;28;20037;-47
2021/11/15 01:37:26;;;;;;;32.72;16.98;;;;;;;4.62;92.99;96161.50;5033401;28;20045;-50
2021/11/15 01:39:53;;;;;;;30.23;16.52;;;;;;;4.52;93.50;96158.91;5033220;28;20045;-49
2021/11/15 01:42:20;;;;;;;32.72;17.77;;;;;;;4.61;93.35;96165.22;5032299;28;20128;-48
2021/11/15 01:44:47;;;;;;;31.45;16.45;;;;;;;4.65;93.21;96163.59;5033172;28;20073;-47
2021/11/15 01:47:14;;;;;;;29.13;14.90;;;;;;;4.51;93.25;96157.34;5033088;28;20507;-47
2021/11/15 01:49:41;;;;;;;27.52;14.10;;;;;;;4.52;93.58;96164.28;5032030;28;20045;-47
2021/11/15 01:52:09;;;;;;;27.35;14.95;;;;;;;4.61;93.07;96170.59;5033281;28;20136;-48
2021/11/15 01:54:36;;;;;;;27.83;14.85;;;;;;;4.61;92.26;96171.38;5041077;28;20042;-47
2021/11/15 01:57:04;;;;;;;26.23;14.80;;;;;;;4.77;92.00;96174.66;5031677;28;20510;-48
2021/11/15 01:59:31;;;;;;;27.63;14.10;;;;;;;4.74;91.29;96167.19;5033211;28;20084;-48
2021/11/15 02:01:58;;;;;;;30.90;14.25;;;;;;;4.72;90.76;96169.38;5032552;28;20052;-47
2021/11/15 02:04:25;;;;;;;23.70;12.95;;;;;;;4.56;90.73;96163.44;5031842;28;20129;-47
2021/11/15 02:06:52;;;;;;;25.00;12.93;;;;;;;4.69;90.46;96159.25;5032747;28;20048;-47
2021/11/15 02:09:20;;;;;;;23.20;13.02;;;;;;;4.72;91.53;96161.34;5032913;28;20095;-47
2021/11/15 02:11:47;;;;;;;26.95;14.38;;;;;;;4.83;90.44;96157.44;5035217;28;20050;-47
2021/11/15 02:14:13;;;;;;;26.77;14.77;;;;;;;4.79;90.90;96161.78;5052175;28;20045;-46
2021/11/15 02:16:40;;;;;;;25.35;14.48;;;;;;;4.61;91.64;96155.31;5052362;28;20037;-48
2021/11/15 02:19:07;;;;;;;27.05;15.13;;;;;;;4.57;92.69;96150.81;5053010;28;20053;-48
2021/11/15 02:21:34;;;;;;;29.35;15.05;;;;;;;4.61;91.66;96146.47;5032878;28;20049;-50
2021/11/15 02:24:01;;;;;;;25.10;13.70;;;;;;;4.58;91.62;96145.19;5035669;28;20149;-48
2021/11/15 02:26:28;;;;;;;25.73;13.18;;;;;;;4.65;92.14;96144.84;5032387;28;20056;-48
2021/11/15 02:28:55;;;;;;;24.58;13.85;;;;;;;4.70;91.57;96144.75;5032362;28;20139;-50
2021/11/15 02:31:27;;;;;;;24.63;13.73;;;;;;;4.72;91.48;96147.94;5035286;28;20041;-47
2021/11/15 02:33:57;;;;;;;24.88;14.20;;;;;;;4.68;91.73;96146.94;5051614;28;20040;-48
2021/11/15 02:36:26;;;;;;;29.48;14.82;;;;;;;4.62;92.34;96143.53;5050798;28;20580;-47
2021/11/15 02:38:54;;;;;;;31.45;15.40;;;;;;;4.86;90.99;96138.09;5052098;28;20071;-50
2021/11/15 02:41:22;;;;;;;30.58;16.27;;;;;;;4.91;90.99;96135.34;5041688;28;20554;-48
2021/11/15 02:43:51;;;;;;;30.25;16.25;;;;;;;4.86;91.10;96138.09;5031288;28;20037;-47
2021/11/15 02:46:18;;;;;;;30.17;16.10;;;;;;;4.43;92.38;96140.81;5031998;28;20049;-51
2021/11/15 02:48:46;;;;;;;26.63;14.77;;;;;;;4.37;93.40;96141.16;5035370;28;20045;-47
2021/11/15 02:51:13;;;;;;;29.92;16.33;;;;;;;4.44;93.73;96147.75;5051843;28;20041;-48
2021/11/15 02:53:42;;;;;;;26.95;14.85;;;;;;;4.47;93.24;96134.88;5044731;28;20096;-48
2021/11/15 02:56:09;;;;;;;27.30;14.35;;;;;;;4.43;93.30;96130.09;5031881;28;20045;-48
2021/11/15 02:58:36;;;;;;;28.67;16.25;;;;;;;4.48;93.39;96141.81;5031586;28;20042;-47
2021/11/15 03:01:07;;;;;;;27.85;14.82;;;;;;;4.49;93.11;96138.09;5030503;28;20050;-49
2021/11/15 03:03:35;;;;;;;31.67;15.93;;;;;;;4.56;92.99;96138.53;5029559;28;20041;-48
2021/11/15 03:06:02;;;;;;;29.70;14.70;;;;;;;4.64;92.77;96137.84;5030624;28;20057;-49
2021/11/15 03:08:30;;;;;;;29.92;15.43;;;;;;;4.62;92.75;96142.72;5031444;28;20046;-48
2021/11/15 03:11:05;;;;;;;29.77;15.68;;;;;;;4.78;92.33;96141.44;5031461;28;20111;-48
2021/11/15 03:13:39;;;;;;;30.25;15.90;;;;;;;4.70;92.66;96139.38;5030171;28;20121;-47
2021/11/15 03:16:07;;;;;;;29.92;15.27;;;;;;;4.59;93.06;96138.75;5029699;28;20091;-49
2021/11/15 03:18:37;;;;;;;23.77;12.38;;;;;;;4.51;93.39;96134.00;5031318;28;20094;-47
2021/11/15 03:21:07;;;;;;;26.90;14.45;;;;;;;4.47;93.00;96135.69;5031538;28;20137;-51
2021/11/15 03:23:38;;;;;;;27.95;14.23;;;;;;;4.43;92.97;96132.78;5030620;28;20045;-48
2021/11/15 03:26:05;;;;;;;26.15;14.77;;;;;;;4.26;94.04;96128.97;5031450;28;20049;-49
2021/11/15 03:28:37;;;;;;;26.58;14.55;;;;;;;4.33;94.20;96127.56;5029980;28;20065;-47
2021/11/15 03:31:10;;;;;;;25.52;13.63;;;;;;;4.39;93.15;96131.75;5030190;28;20133;-47
2021/11/15 03:33:38;;;;;;;23.95;13.18;;;;;;;4.28;94.05;96132.97;5029605;28;20142;-50
2021/11/15 03:36:06;;;;;;;29.95;14.82;;;;;;;4.30;94.55;96128.13;5031409;28;20087;-50
2021/11/15 03:38:34;;;;;;;22.88;13.73;;;;;;;4.46;93.82;96128.72;5031602;28;20092;-46
2021/11/15 03:41:02;;;;;;;26.65;14.00;;;;;;;4.42;93.82;96133.09;5031203;28;20446;-47
2021/11/15 03:43:30;;;;;;;26.08;13.68;;;;;;;4.39;94.22;96129.09;5030521;28;20049;-48
2021/11/15 03:45:57;;;;;;;24.52;13.60;;;;;;;4.44;93.59;96134.38;5031489;28;20187;-47
2021/11/15 03:48:25;;;;;;;24.95;13.45;;;;;;;4.43;93.85;96132.78;5030957;28;20421;-51
2021/11/15 03:50:55;;;;;;;26.10;13.82;;;;;;;4.21;94.37;96132.53;5013539;28;20080;-50
2021/11/15 03:53:32;;;;;;;25.85;13.88;;;;;;;4.07;95.08;96134.31;5030390;28;20098;-47
2021/11/15 03:56:01;;;;;;;24.58;13.75;;;;;;;4.03;95.77;96141.28;5031050;28;20499;-48
2021/11/15 03:58:28;;;;;;;27.17;13.75;;;;;;;4.09;95.68;96134.78;5030931;28;20124;-48
2021/11/15 04:00:57;;;;;;;24.75;14.18;;;;;;;4.13;95.88;96133.16;5031184;28;20475;-50
2021/11/15 04:03:31;;;;;;;24.20;12.65;;;;;;;4.17;95.84;96132.28;5030083;28;20487;-48
2021/11/15 04:06:03;;;;;;;28.38;14.75;;;;;;;4.23;96.02;96130.38;5029874;28;20506;-49
2021/11/15 04:08:32;;;;;;;27.08;13.75;;;;;;;4.31;95.33;96123.56;5029710;28;20045;-49
2021/11/15 04:11:02;;;;;;;28.27;14.35;;;;;;;4.34;95.45;96131.81;5030773;28;20136;-48
2021/11/15 04:13:35;;;;;;;27.95;13.88;;;;;;;4.28;95.50;96126.81;5029946;28;20068;-51
2021/11/15 04:16:09;;;;;;;29.13;14.75;;;;;;;4.14;95.92;96132.06;5029618;28;20045;-51
2021/11/15 04:18:40;;;;;;;28.80;13.98;;;;;;;4.21;96.15;96133.31;5030855;28;20423;-48
2021/11/15 04:21:08;;;;;;;27.67;13.73;;;;;;;4.31;95.95;96134.28;5029294;28;20104;-49
2021/11/15 04:23:35;;;;;;;29.75;15.05;;;;;;;4.24;96.52;96131.94;5033935;28;20106;-48
2021/11/15 04:26:02;;;;;;;27.90;14.10;;;;;;;4.33;96.33;96129.44;5051924;28;20124;-48
2021/11/15 04:28:29;;;;;;;27.27;13.85;;;;;;;4.29;96.19;96128.41;5054312;28;20044;-47
2021/11/15 04:30:56;;;;;;;29.05;14.32;;;;;;;4.30;96.51;96119.31;5052988;28;20063;-48
2021/11/15 04:33:24;;;;;;;31.90;15.25;;;;;;;4.26;96.12;96116.41;5038224;28;20049;-48
2021/11/15 04:35:52;;;;;;;27.42;13.73;;;;;;;4.19;96.30;96114.06;5032985;28;20100;-48
2021/11/15 04:38:19;;;;;;;26.10;14.23;;;;;;;4.35;96.56;96109.28;5034023;28;20128;-51
2021/11/15 04:40:47;;;;;;;31.08;14.88;;;;;;;4.41;96.53;96102.78;5034156;28;20152;-47
2021/11/15 04:43:15;;;;;;;26.73;13.90;;;;;;;4.33;95.65;96103.44;5053179;28;20132;-49
2021/11/15 04:45:42;;;;;;;28.45;14.00;;;;;;;4.44;95.01;96099.53;5054062;28;20144;-49
2021/11/15 04:48:08;;;;;;;27.60;13.93;;;;;;;4.30;95.95;96103.22;5054158;28;20041;-50
2021/11/15 04:50:35;;;;;;;24.83;13.15;;;;;;;4.21;96.00;96114.56;5052166;28;20049;-50
2021/11/15 04:53:04;;;;;;;28.23;14.30;;;;;;;4.17;96.32;96115.44;5052083;28;20051;-50
2021/11/15 04:55:31;;;;;;;27.10;14.13;;;;;;;4.20;96.04;96120.22;5033991;28;20045;-51
2021/11/15 04:57:58;;;;;;;26.58;13.10;;;;;;;4.21;95.84;96111.09;5034081;28;20048;-46
2021/11/15 05:00:30;;;;;;;22.80;12.13;;;;;;;4.16;95.75;96113.81;5032592;28;20069;-49
2021/11/15 05:02:57;;;;;;;27.80;12.63;;;;;;;4.32;95.21;96114.44;5033418;28;20125;-49
2021/11/15 05:05:24;;;;;;;23.45;11.90;;;;;;;4.30;94.75;96106.69;5033030;28;20571;-47
2021/11/15 05:07:56;;;;;;;23.95;12.23;;;;;;;4.42;93.95;96107.09;5034038;28;20125;-47
2021/11/15 05:10:28;;;;;;;26.33;11.57;;;;;;;4.41;94.79;96104.69;5021095;28;20097;-51
2021/11/15 05:12:56;;;;;;;25.25;12.10;;;;;;;4.36;95.13;96108.22;5033823;28;20407;-50
2021/11/15 05:15:24;;;;;;;25.20;12.20;;;;;;;4.26;95.20;96108.38;5032666;28;20514;-50
2021/11/15 05:17:52;;;;;;;25.00;11.90;;;;;;;4.49;95.10;96106.72;5033756;28;20487;-47
2021/11/15 05:20:20;;;;;;;23.35;12.63;;;;;;;4.50;93.48;96115.56;5033944;28;20073;-47
2021/11/15 05:22:48;;;;;;;24.67;11.77;;;;;;;4.44;93.28;96107.56;5033417;28;20103;-48
2021/11/15 05:25:16;;;;;;;27.08;12.07;;;;;;;4.45;93.83;96111.88;5032631;28;20231;-48
2021/11/15 05:27:44;;;;;;;26.27;12.88;;;;;;;4.25;95.35;96114.78;5032187;28;20045;-49
2021/11/15 05:30:14;;;;;;;26.42;11.95;;;;;;;4.33;95.27;96113.38;5033656;28;20387;-51
2021/11/15 05:32:41;;;;;;;21.42;10.88;;;;;;;4.23;95.78;96108.94;5033331;28;20554;-48
2021/11/15 05:35:09;;;;;;;23.75;11.63;;;;;;;4.20;95.19;96106.81;5032893;28;20037;-49
2021/11/15 05:37:36;;;;;;;20.95;11.20;;;;;;;4.20;95.26;96109.50;5031637;28;20053;-50
2021/11/15 05:40:07;;;;;;;21.00;11.68;;;;;;;4.19;95.22;96113.25;5034077;28;20152;-49
2021/11/15 05:42:34;;;;;;;19.90;9.75;;;;;;;4.14;95.94;96121.38;5033227;28;20446;-50
2021/11/15 05:45:04;;;;;;;20.33;11.38;;;;;;;4.33;95.78;96124.88;5033526;28;20049;-46
2021/11/15 05:47:31;;;;;;;24.63;11.77;;;;;;;4.20;95.20;96126.38;5033366;28;20054;-49
2021/11/15 05:49:58;;;;;;;24.35;11.80;;;;;;;4.24;95.54;96134.63;5031960;28;20511;-46
2021/11/15 05:52:25;;;;;;;22.98;11.20;;;;;;;4.34;95.21;96131.81;5032624;28;20494;-49
2021/11/15 05:54:52;;;;;;;19.50;11.40;;;;;;;4.27;94.83;96138.63;5032516;28;20041;-47
2021/11/15 05:57:20;;;;;;;23.17;11.05;;;;;;;4.13;95.26;96139.31;5033149;28;20397;-49
2021/11/15 05:59:47;;;;;;;22.27;11.60;;;;;;;4.16;95.45;96130.72;5031972;28;20110;-46
2021/11/15 06:02:15;;;;;;;19.40;10.15;;;;;;;4.20;95.03;96134.41;5031751;28;20050;-47
2021/11/15 06:04:42;;;;;;;21.42;10.98;;;;;;;4.12;94.84;96136.91;5032849;28;20525;-46
2021/11/15 06:07:09;;;;;;;19.13;9.88;;;;;;;4.11;94.99;96141.47;5031785;28;20096;-47
2021/11/15 06:09:36;;;;;;;21.15;10.90;;;;;;;4.16;94.46;96144.09;5032968;28;20125;-47
2021/11/15 06:12:04;;;;;;;18.30;10.57;;;;;;;4.18;94.55;96141.13;5032752;28;20129;-47
2021/11/15 06:14:31;;;;;;;20.27;10.52;;;;;;;4.19;94.81;96140.03;5032445;28;20080;-48
2021/11/15 06:16:58;;;;;;;21.63;10.63;;;;;;;4.51;91.96;96144.72;5047818;28;20514;-49
2021/11/15 06:19:25;;;;;;;21.13;10.48;;;;;;;4.52;92.77;96143.66;5033012;28;20132;-47
2021/11/15 06:21:52;;;;;;;17.30;9.73;;;;;;;4.77;89.82;96133.66;5041704;28;20490;-48
2021/11/15 06:24:20;;;;;;;19.08;9.88;;;;;;;4.73;90.46;96146.84;5039376;28;20045;-49
2021/11/15 06:26:47;;;;;;;19.95;10.90;;;;;;;4.79;90.88;96147.59;5031302;28;20068;-47
2021/11/15 06:29:14;;;;;;;22.75;11.40;;;;;;;4.78;90.57;96138.75;5032602;28;20132;-50
2021/11/15 06:31:41;;;;;;;20.30;11.75;;;;;;;4.70;91.18;96144.75;5032391;28;20049;-46
2021/11/15 06:34:08;;;;;;;22.40;12.63;;;;;;;4.81;90.96;96135.50;5032280;28;20053;-46
2021/11/15 06:36:35;;;;;;;25.48;13.32;;;;;;;4.74;91.30;96150.31;5031340;28;20128;-48
2021/11/15 06:39:03;;;;;;;25.17;13.48;;;;;;;4.62;92.03;96150.78;5032494;28;20084;-48
2021/11/15 06:41:31;;;;;;;29.60;13.57;;;;;;;4.74;91.86;96148.44;5032145;28;20045;-46
2021/11/15 06:43:58;;;;;;;25.20;14.10;;;;;;;4.69;92.41;96153.88;5032037;28;20510;-49
2021/11/15 06:46:27;;;;;;;23.83;14.10;;;;;;;4.76;91.67;96161.56;5032087;28;20049;-46
2021/11/15 06:48:55;;;;;;;24.23;13.48;;;;;;;4.60;91.69;96150.25;5031933;28;20099;-45
2021/11/15 06:51:36;;;;;;;22.45;11.80;;;;;;;4.47;92.32;96157.09;5031249;28;20049;-46
2021/11/15 06:54:04;;;;;;;24.13;13.18;;;;;;;4.56;92.03;96159.97;5030435;28;20045;-47
2021/11/15 06:56:31;;;;;;;22.40;12.30;;;;;;;4.68;91.48;96168.38;5031929;28;20041;-47
2021/11/15 06:58:58;;;;;;;21.88;12.60;;;;;;;4.80;91.61;96160.69;5032015;28;20061;-49
2021/11/15 07:01:25;;;;;;;21.23;11.32;;;;;;;4.78;91.27;96167.44;5032065;28;20045;-46
2021/11/15 07:03:53;;;;;;;22.50;12.45;;;;;;;4.93;89.55;96168.00;5031632;28;20045;-47
2021/11/15 07:06:20;;;;;;;21.67;11.65;;;;;;;4.64;90.55;96167.34;5032088;28;20047;-47
2021/11/15 07:08:48;;;;;;;24.23;12.63;;;;;;;4.22;92.32;96174.28;5031803;28;20052;-50
2021/11/15 07:11:15;;;;;;;24.25;12.27;;;;;;;4.04;93.65;96185.75;5031740;28;20435;-49
2021/11/15 07:13:42;;;;;;;20.55;11.85;;;;;;;4.04;94.19;96191.09;5031362;28;20099;-50
2021/11/15 07:16:10;;;;;;;24.67;13.23;;;;;;;3.98;94.81;96190.34;5031727;28;20077;-48
2021/11/15 07:18:37;;;;;;;26.10;12.68;;;;;;;3.98;94.58;96182.31;5031732;28;20523;-52
2021/11/15 07:21:05;;;;;;;25.02;13.13;;;;;;;4.07;94.85;96194.00;5031453;28;20225;-49
2021/11/15 07:23:32;;;;;;;23.25;12.57;;;;;;;4.13;94.64;96197.44;5030979;28;20091;-51
2021/11/15 07:25:59;;;;;;;24.08;13.55;;;;;;;4.16;94.50;96191.47;5031515;28;20041;-48
2021/11/15 07:28:26;;;;;;;25.38;12.95;;;;;;;4.20;94.51;96196.00;5031458;28;20056;-45
2021/11/15 07:30:56;;;;;;;25.63;12.70;;;;;;;4.02;94.85;96190.56;5031507;28;20037;-46
2021/11/15 07:33:25;;;;;;;26.95;13.13;;;;;;;3.97;95.10;96181.53;5031580;28;20487;-45
2021/11/15 07:35:53;;;;;;;26.95;13.30;;;;;;;3.99;95.72;96184.69;5030187;28;20128;-46
2021/11/15 07:38:20;;;;;;;25.88;13.05;;;;;;;4.07;95.53;96185.97;5031452;28;20263;-48
2021/11/15 07:40:47;;;;;;;26.80;13.93;;;;;;;4.10;95.15;96189.97;5030961;28;20495;-46
2021/11/15 07:43:15;;;;;;;27.77;13.95;;;;;;;4.26;94.94;96187.88;5031065;28;20498;-47
2021/11/15 07:45:42;;;;;;;24.10;12.50;;;;;;;4.26;93.98;96183.34;5031359;28;20101;-45
2021/11/15 07:48:10;;;;;;;25.48;12.60;;;;;;;4.18;94.61;96194.69;5029792;28;20052;-48
2021/11/15 07:50:37;;;;;;;26.02;13.02;;;;;;;4.05;94.51;96192.69;5031273;28;20521;-46
2021/11/15 07:53:06;;;;;;;25.48;13.63;;;;;;;3.99;95.22;96203.44;5030605;28;20045;-45
2021/11/15 07:55:33;;;;;;;25.35;13.35;;;;;;;4.17;95.38;96198.44;5031273;28;20041;-47
2021/11/15 07:58:02;;;;;;;28.58;14.25;;;;;;;4.30;94.72;96200.44;5031282;28;20396;-48
2021/11/15 08:00:29;;;;;;;26.02;13.73;;;;;;;4.30;93.95;96203.13;5032323;28;20133;-48
2021/11/15 08:02:56;;;;;;;27.77;14.13;;;;;;;4.43;92.52;96194.41;5037520;28;20099;-48
2021/11/15 08:05:24;;;;;;;26.63;14.13;;;;;;;4.27;93.57;96201.00;5037937;28;20033;-45
2021/11/15 08:07:51;;;;;;;27.77;13.73;;;;;;;4.33;94.32;96191.84;5036741;28;20139;-47
2021/11/15 08:10:19;;;;;;;28.35;13.82;;;;;;;4.29;94.30;96181.97;5036826;28;20069;-46
2021/11/15 08:12:56;;;;;;;27.38;13.85;;;;;;;4.24;94.47;96193.53;5037281;28;20071;-45
2021/11/15 08:15:25;;;;;;;29.50;15.20;;;;;;;4.22;94.77;96188.50;5038082;28;20038;-47
2021/11/15 08:17:55;;;;;;;29.88;14.65;;;;;;;4.36;94.14;96187.81;5073674;22;20471;-47
2021/11/15 08:20:34;;;;;;;27.13;14.52;;;;;;;4.42;93.39;96197.38;5068209;28;20068;-49
2021/11/15 08:23:06;;;;;;;27.13;14.88;;;;;;;4.30;94.03;96210.38;5056519;28;20472;-50
2021/11/15 08:26:10;;;;;;;28.52;14.60;;;;;;;4.32;94.44;96211.69;5057619;28;20040;-48
2021/11/15 08:28:38;;;;;;;27.58;14.52;;;;;;;4.36;94.61;96203.88;5058115;28;20135;-53
2021/11/15 08:31:08;;;;;;;29.67;15.38;;;;;;;4.46;94.51;96198.41;5057403;28;20071;-54
2021/11/15 08:33:36;;;;;;;28.65;15.82;;;;;;;4.35;94.01;96208.41;5039522;28;20044;-47
2021/11/15 08:36:03;;;;;;;33.50;16.08;;;;;;;4.48;94.29;96203.44;5057630;28;20036;-49
2021/11/15 08:38:39;;;;;;;30.20;15.48;;;;;;;4.41;94.61;96201.13;5057418;28;20056;-49
2021/11/15 08:41:06;;;;;;;29.70;14.93;;;;;;;4.39;94.91;96197.94;5057496;28;20069;-48
2021/11/15 08:43:34;;;;;;;30.08;15.02;;;;;;;4.43;94.18;96205.13;5056740;28;20102;-45
2021/11/15 08:46:02;;;;;;;29.08;14.95;;;;;;;4.29;94.95;96206.06;5057428;28;20049;-46
2021/11/15 08:48:29;;;;;;;27.63;14.15;;;;;;;4.20;94.85;96211.28;5039519;28;20497;-45
2021/11/15 08:50:56;;;;;;;28.23;14.77;;;;;;;4.28;94.41;96207.16;5057563;28;20114;-46
2021/11/15 08:53:24;;;;;;;27.85;14.88;;;;;;;4.32;93.90;96210.88;5059223;28;20063;-46
2021/11/15 08:55:51;;;;;;;31.63;16.17;;;;;;;4.31;94.89;96215.44;5077263;28;20056;-49
2021/11/15 08:58:18;;;;;;;31.33;15.95;;;;;;;4.49;93.37;96213.09;5077512;28;20051;-46
2021/11/15 09:00:46;;;;;;;31.02;15.50;;;;;;;4.59;93.46;96207.63;5077496;28;20551;-46
2021/11/15 09:03:15;;;;;;;25.50;14.40;;;;;;;4.60;93.77;96204.63;5039156;28;20040;-54
2021/11/15 09:05:43;;;;;;;19.58;11.18;;;;;;;4.49;93.04;96207.75;5057532;28;20037;-52
2021/11/15 09:08:11;;;;;;;21.00;11.75;;;;;;;4.34;93.84;96214.06;5039906;28;20510;-50
2021/11/15 09:10:38;;;;;;;19.42;10.68;;;;;;;4.50;93.10;96199.41;5025895;28;20076;-54
2021/11/15 09:13:06;;;;;;;19.05;10.43;;;;;;;4.56;92.90;96198.25;5074081;28;20044;-52
2021/11/15 09:15:33;;;;;;;16.77;9.52;;;;;;;4.57;91.53;96201.75;5074298;28;20135;-50
2021/11/15 09:18:00;;;;;;;17.83;9.90;;;;;;;4.77;90.35;96206.03;5074012;28;20091;-47
2021/11/15 09:20:27;;;;;;;18.83;10.15;;;;;;;4.65;90.83;96196.53;5062052;28;20148;-49
2021/11/15 09:22:55;;;;;;;18.42;9.43;;;;;;;4.58;91.59;96201.47;5035873;28;20049;-54
2021/11/15 09:25:22;;;;;;;17.90;9.98;;;;;;;4.59;91.23;96196.91;5053898;28;20386;-47
2021/11/15 09:27:50;;;;;;;18.90;10.50;;;;;;;4.53;92.96;96198.03;5054030;28;20470;-52
2021/11/15 09:30:17;;;;;;;18.38;10.60;;;;;;;4.50;93.15;96194.03;5054346;28;20044;-54
2021/11/15 09:32:44;;;;;;;15.90;9.70;;;;;;;4.58;92.80;96189.91;5052918;28;20069;-52
2021/11/15 09:35:12;;;;;;;15.85;9.05;;;;;;;4.53;91.58;96198.03;5036383;28;20438;-51
2021/11/15 09:37:39;;;;;;;15.18;8.18;;;;;;;4.41;91.14;96201.91;5053853;28;20514;-52
2021/11/15 09:40:09;;;;;;;16.23;9.02;;;;;;;4.40;90.99;96199.53;5036252;28;20475;-47
2021/11/15 09:42:36;;;;;;;11.98;7.30;;;;;;;4.35;90.32;96212.97;5052442;28;20487;-49
2021/11/15 09:45:07;;;;;;;10.90;6.88;;;;;;;4.59;90.44;96218.34;5053559;28;20116;-48
2021/11/15 09:47:39;;;;;;;13.27;7.85;;;;;;;4.72;90.33;96204.22;5053688;28;20060;-50
2021/11/15 09:50:15;;;;;;;15.60;8.05;;;;;;;4.78;90.04;96204.97;5053483;28;20136;-50
2021/11/15 09:52:42;;;;;;;13.55;7.78;;;;;;;4.60;89.25;96209.22;5052796;28;20212;-51
2021/11/15 09:55:10;;;;;;;15.32;8.07;;;;;;;4.50;90.49;96201.28;5053348;28;20517;-47
2021/11/15 09:57:41;;;;;;;13.77;7.90;;;;;;;4.53;90.45;96208.75;5035811;28;20053;-49
2021/11/15 10:00:15;;;;;;;12.80;7.35;;;;;;;4.64;90.55;96205.66;5035616;28;20045;-49
2021/11/15 10:02:43;;;;;;;13.13;7.68;;;;;;;4.64;90.81;96212.91;5063263;28;20060;-50
2021/11/15 10:05:10;;;;;;;15.68;7.68;;;;;;;4.69;90.29;96213.63;5055820;28;20086;-47
2021/11/15 10:07:52;;;;;;;14.43;8.18;;;;;;;4.75;90.04;96213.59;5055718;28;20128;-47
2021/11/15 10:10:44;;;;;;;13.60;7.95;;;;;;;4.72;89.50;96206.91;5055636;28;20051;-48
2021/11/15 10:13:35;;;;;;;14.52;8.30;;;;;;;4.84;89.34;96199.25;5053085;28;20041;-46
2021/11/15 10:16:08;;;;;;;14.35;7.32;;;;;;;4.82;89.16;96201.41;5053556;28;20124;-47
2021/11/15 10:18:38;;;;;;;;;;;;;;;4.77;90.14;96201.47;5053535;28;20506;-50
2021/11/15 10:21:16;;;;;;;13.02;7.72;;;;;;;4.56;90.10;96189.44;5053219;28;19948;-54
2021/11/15 10:23:49;;;;;;;13.63;7.88;;;;;;;4.61;89.56;96194.72;5057206;28;20133;-47
2021/11/15 10:26:29;;;;;;;15.82;8.60;;;;;;;4.53;89.74;96200.72;5073247;28;20565;-54
2021/11/15 10:29:05;;;;;;;15.50;9.48;;;;;;;4.42;90.75;96198.16;5072900;28;20090;-48
2021/11/15 10:31:37;;;;;;;17.42;10.20;;;;;;;4.76;90.24;96194.53;5050505;28;20123;-49
2021/11/15 10:34:07;;;;;;;17.02;9.95;;;;;;;4.68;90.81;96195.97;5052276;28;20458;-53
2021/11/15 10:36:47;;;;;;;20.50;10.63;;;;;;;4.59;92.05;96186.19;5035199;28;20037;-47
2021/11/15 10:39:15;;;;;;;21.55;11.90;;;;;;;4.86;91.18;96191.69;5052805;28;20052;-51
2021/11/15 10:41:42;;;;;;;24.77;12.07;;;;;;;4.73;90.96;96187.06;5052911;28;20071;-50
2021/11/15 10:44:12;;;;;;;25.17;12.23;;;;;;;4.73;91.54;96181.69;5034572;28;20126;-51
2021/11/15 10:46:41;;;;;;;19.63;10.82;;;;;;;4.65;92.11;96183.16;5035263;28;20065;-52
2021/11/15 10:49:10;;;;;;;20.90;11.85;;;;;;;4.82;90.90;96182.66;5050292;28;20169;-49
2021/11/15 10:51:51;;;;;;;22.70;12.43;;;;;;;4.72;90.91;96188.16;5035029;28;20490;-49
2021/11/15 10:54:37;;;;;;;20.10;10.63;;;;;;;4.71;91.22;96189.22;5051767;28;20111;-45
2021/11/15 10:57:34;;;;;;;22.50;12.07;;;;;;;4.59;92.28;96178.94;5034817;28;20091;-45
2021/11/15 11:00:05;;;;;;;23.05;11.82;;;;;;;4.64;92.64;96178.06;5052761;28;20044;-47
2021/11/15 11:02:41;;;;;;;19.95;10.52;;;;;;;4.60;92.48;96171.69;5071594;28;20219;-47
2021/11/15 11:05:11;;;;;;;17.40;10.63;;;;;;;4.72;91.92;96179.31;5072294;28;20465;-54
2021/11/15 11:07:42;;;;;;;20.83;11.60;;;;;;;4.64;90.96;96173.50;5068541;28;20048;-49
2021/11/15 11:10:19;;;;;;;23.92;12.15;;;;;;;4.49;91.94;96164.88;5051703;28;20565;-46
2021/11/15 11:13:03;;;;;;;23.20;13.13;;;;;;;4.33;93.60;96167.72;5051487;28;20449;-49
2021/11/15 11:15:34;;;;;;;23.98;13.68;;;;;;;4.34;94.11;96166.63;5034326;28;20608;-52
2021/11/15 11:18:17;;;;;;;24.90;13.15;;;;;;;4.37;93.84;96160.72;5051714;28;20037;-48
2021/11/15 11:23:58;;;;;;;29.30;12.90;;;;;;;4.47;93.79;96161.69;5033757;28;20131;-52
2021/11/15 11:26:17;;;;;;;22.33;12.38;;;;;;;4.52;93.30;96156.22;5050589;28;20052;-48
2021/11/15 11:28:53;;;;;;;24.27;13.15;;;;;;;4.56;93.13;96160.75;5052204;28;20036;-48
2021/11/15 11:31:22;;;;;;;26.33;12.90;;;;;;;4.35;93.79;96162.06;5051837;28;20037;-47
2021/11/15 11:33:49;;;;;;;26.98;13.88;;;;;;;4.42;93.78;96168.69;5039347;28;20077;-52
2021/11/15 11:36:17;;;;;;;26.90;14.20;;;;;;;4.37;93.97;96163.38;5051085;28;20073;-53
2021/11/15 11:38:45;;;;;;;25.52;13.50;;;;;;;4.34;94.62;96163.97;5051651;28;20140;-52